sensor_id;sensor_type;location;lat;lon;timestamp;temperature;humidity
21123;DHT22;10719;48.130;11.630;2023-03-31T00:01:48;7.30;99.90
21123;DHT22;10719;48.130;11.630;2023-03-31T00:04:13;7.20;99.90
21123;DHT22;10719;48.130;11.630;2023-03-31T00:06:40;7.30;99.90
21123;DHT22;10719;48.130;11.630;2023-03-31T00:09:12;7.30;99.90
21123;DHT22;10719;48.130;11.630;2023-03-31T00:11:38;7.30;99.90
21123;DHT22;10719;48.130;11.630;2023-03-31T00:14:04;7.30;99.90
21123;DHT22;10719;48.130;11.630;2023-03-31T00:16:37;7.30;99.90
21123;DHT22;10719;48.130;11.630;2023-03-31T00:19:03;7.40;99.90
21123;DHT22;10719;48.130;11.630;2023-03-31T00:21:30;7.40;99.90
21123;DHT22;10719;48.130;11.630;2023-03-31T00:24:05;7.40;99.90
21123;DHT22;10719;48.130;11.630;2023-03-31T00:26:32;7.40;99.90
21123;DHT22;10719;48.130;11.630;2023-03-31T00:28:59;7.40;99.90
21123;DHT22;10719;48.130;11.630;2023-03-31T00:31:26;7.40;99.90
21123;DHT22;10719;48.130;11.630;2023-03-31T00:33:52;7.40;99.90
21123;DHT22;10719;48.130;11.630;2023-03-31T00:36:18;7.40;99.90
21123;DHT22;10719;48.130;11.630;2023-03-31T00:38:52;7.50;99.90
21123;DHT22;10719;48.130;11.630;2023-03-31T00:41:18;7.50;99.90
21123;DHT22;10719;48.130;11.630;2023-03-31T00:44:07;7.50;99.90
21123;DHT22;10719;48.130;11.630;2023-03-31T00:49:33;7.50;99.90
21123;DHT22;10719;48.130;11.630;2023-03-31T00:52:06;7.50;99.90
21123;DHT22;10719;48.130;11.630;2023-03-31T00:54:35;7.60;99.90
21123;DHT22;10719;48.130;11.630;2023-03-31T00:57:02;7.60;99.90
21123;DHT22;10719;48.130;11.630;2023-03-31T00:59:37;7.60;99.90
21123;DHT22;10719;48.130;11.630;2023-03-31T01:02:04;7.70;99.90
21123;DHT22;10719;48.130;11.630;2023-03-31T01:04:34;7.70;99.90
21123;DHT22;10719;48.130;11.630;2023-03-31T01:07:09;7.80;99.90
21123;DHT22;10719;48.130;11.630;2023-03-31T01:09:38;7.80;99.90
21123;DHT22;10719;48.130;11.630;2023-03-31T01:12:06;7.80;99.90
21123;DHT22;10719;48.130;11.630;2023-03-31T01:14:33;7.90;99.90
21123;DHT22;10719;48.130;11.630;2023-03-31T01:16:59;7.90;99.90
21123;DHT22;10719;48.130;11.630;2023-03-31T01:19:49;7.90;99.90
21123;DHT22;10719;48.130;11.630;2023-03-31T01:22:34;7.90;99.90
21123;DHT22;10719;48.130;11.630;2023-03-31T01:28:07;7.90;99.90
21123;DHT22;10719;48.130;11.630;2023-03-31T01:36:37;7.90;99.90
21123;DHT22;10719;48.130;11.630;2023-03-31T01:44:56;7.70;99.90
21123;DHT22;10719;48.130;11.630;2023-03-31T01:47:44;7.70;99.90
21123;DHT22;10719;48.130;11.630;2023-03-31T01:55:21;7.70;99.90
21123;DHT22;10719;48.130;11.630;2023-03-31T01:57:53;7.80;99.90
21123;DHT22;10719;48.130;11.630;2023-03-31T02:00:26;7.80;99.90
21123;DHT22;10719;48.130;11.630;2023-03-31T02:03:01;7.80;99.90
21123;DHT22;10719;48.130;11.630;2023-03-31T02:05:35;7.80;99.90
21123;DHT22;10719;48.130;11.630;2023-03-31T02:08:07;7.90;99.90
21123;DHT22;10719;48.130;11.630;2023-03-31T02:10:35;7.90;99.90
21123;DHT22;10719;48.130;11.630;2023-03-31T02:13:01;7.90;99.90
21123;DHT22;10719;48.130;11.630;2023-03-31T02:15:33;7.90;99.90
21123;DHT22;10719;48.130;11.630;2023-03-31T02:18:01;7.90;99.90
21123;DHT22;10719;48.130;11.630;2023-03-31T02:20:31;7.90;99.90
21123;DHT22;10719;48.130;11.630;2023-03-31T02:22:58;7.90;99.90
21123;DHT22;10719;48.130;11.630;2023-03-31T02:25:32;7.90;99.90
21123;DHT22;10719;48.130;11.630;2023-03-31T02:28:03;7.90;99.90
21123;DHT22;10719;48.130;11.630;2023-03-31T02:30:41;8.00;99.90
21123;DHT22;10719;48.130;11.630;2023-03-31T02:33:10;8.00;99.90
21123;DHT22;10719;48.130;11.630;2023-03-31T02:35:36;8.00;99.90
21123;DHT22;10719;48.130;11.630;2023-03-31T02:38:01;8.00;99.90
21123;DHT22;10719;48.130;11.630;2023-03-31T02:40:27;8.00;99.90
21123;DHT22;10719;48.130;11.630;2023-03-31T02:42:55;8.00;99.90
21123;DHT22;10719;48.130;11.630;2023-03-31T02:45:42;8.10;99.90
21123;DHT22;10719;48.130;11.630;2023-03-31T02:48:15;8.10;99.90
21123;DHT22;10719;48.130;11.630;2023-03-31T02:54:06;8.10;99.90
21123;DHT22;10719;48.130;11.630;2023-03-31T03:05:07;8.30;99.90
21123;DHT22;10719;48.130;11.630;2023-03-31T03:07:46;8.30;99.90
21123;DHT22;10719;48.130;11.630;2023-03-31T03:10:26;8.50;99.90
21123;DHT22;10719;48.130;11.630;2023-03-31T03:13:10;8.60;99.90
21123;DHT22;10719;48.130;11.630;2023-03-31T03:15:52;8.60;99.90
21123;DHT22;10719;48.130;11.630;2023-03-31T03:18:20;8.60;99.90
21123;DHT22;10719;48.130;11.630;2023-03-31T03:20:46;8.50;99.90
21123;DHT22;10719;48.130;11.630;2023-03-31T03:23:14;8.50;99.90
21123;DHT22;10719;48.130;11.630;2023-03-31T03:25:40;8.50;99.90
21123;DHT22;10719;48.130;11.630;2023-03-31T03:28:06;8.50;99.90
21123;DHT22;10719;48.130;11.630;2023-03-31T03:30:32;8.50;99.90
21123;DHT22;10719;48.130;11.630;2023-03-31T03:32:57;8.50;99.90
21123;DHT22;10719;48.130;11.630;2023-03-31T03:35:23;8.40;99.90
21123;DHT22;10719;48.130;11.630;2023-03-31T03:37:49;8.30;99.90
21123;DHT22;10719;48.130;11.630;2023-03-31T03:40:15;8.40;99.90
21123;DHT22;10719;48.130;11.630;2023-03-31T03:42:40;8.40;99.90
21123;DHT22;10719;48.130;11.630;2023-03-31T03:45:06;8.50;99.90
21123;DHT22;10719;48.130;11.630;2023-03-31T03:47:32;8.50;99.90
21123;DHT22;10719;48.130;11.630;2023-03-31T03:49:58;8.60;99.90
21123;DHT22;10719;48.130;11.630;2023-03-31T03:52:23;8.50;99.90
21123;DHT22;10719;48.130;11.630;2023-03-31T03:54:49;8.50;99.90
21123;DHT22;10719;48.130;11.630;2023-03-31T03:57:14;8.60;99.90
21123;DHT22;10719;48.130;11.630;2023-03-31T03:59:41;8.50;99.90
21123;DHT22;10719;48.130;11.630;2023-03-31T04:02:06;8.60;99.90
21123;DHT22;10719;48.130;11.630;2023-03-31T04:04:32;8.50;99.90
21123;DHT22;10719;48.130;11.630;2023-03-31T04:06:57;8.50;99.90
21123;DHT22;10719;48.130;11.630;2023-03-31T04:09:23;8.50;99.90
21123;DHT22;10719;48.130;11.630;2023-03-31T04:11:48;8.50;99.90
21123;DHT22;10719;48.130;11.630;2023-03-31T04:14:14;8.40;99.90
21123;DHT22;10719;48.130;11.630;2023-03-31T04:16:40;8.40;99.90
21123;DHT22;10719;48.130;11.630;2023-03-31T04:19:06;8.40;99.90
21123;DHT22;10719;48.130;11.630;2023-03-31T04:21:32;8.40;99.90
21123;DHT22;10719;48.130;11.630;2023-03-31T04:24:02;8.40;99.90
21123;DHT22;10719;48.130;11.630;2023-03-31T04:26:34;8.30;99.90
21123;DHT22;10719;48.130;11.630;2023-03-31T04:29:13;8.20;99.90
21123;DHT22;10719;48.130;11.630;2023-03-31T04:31:41;8.20;99.90
21123;DHT22;10719;48.130;11.630;2023-03-31T04:34:07;8.20;99.90
21123;DHT22;10719;48.130;11.630;2023-03-31T04:36:42;8.10;99.90
21123;DHT22;10719;48.130;11.630;2023-03-31T04:39:15;8.10;99.90
21123;DHT22;10719;48.130;11.630;2023-03-31T04:41:41;8.10;99.90
21123;DHT22;10719;48.130;11.630;2023-03-31T04:44:10;8.10;99.90
21123;DHT22;10719;48.130;11.630;2023-03-31T04:46:35;8.00;99.90
21123;DHT22;10719;48.130;11.630;2023-03-31T04:49:01;8.10;99.90
21123;DHT22;10719;48.130;11.630;2023-03-31T04:51:27;8.00;99.90
21123;DHT22;10719;48.130;11.630;2023-03-31T04:53:53;8.00;99.90
21123;DHT22;10719;48.130;11.630;2023-03-31T04:56:19;8.00;99.90
21123;DHT22;10719;48.130;11.630;2023-03-31T04:58:45;8.00;99.90
21123;DHT22;10719;48.130;11.630;2023-03-31T05:01:11;8.00;99.90
21123;DHT22;10719;48.130;11.630;2023-03-31T05:03:43;7.90;99.90
21123;DHT22;10719;48.130;11.630;2023-03-31T05:06:09;7.80;99.90
21123;DHT22;10719;48.130;11.630;2023-03-31T05:08:34;7.80;99.90
21123;DHT22;10719;48.130;11.630;2023-03-31T05:11:02;7.70;99.90
21123;DHT22;10719;48.130;11.630;2023-03-31T05:13:27;7.70;99.90
21123;DHT22;10719;48.130;11.630;2023-03-31T05:15:53;7.70;99.90
21123;DHT22;10719;48.130;11.630;2023-03-31T05:18:18;7.80;99.90
21123;DHT22;10719;48.130;11.630;2023-03-31T05:20:44;7.70;99.90
21123;DHT22;10719;48.130;11.630;2023-03-31T05:23:09;7.70;99.90
21123;DHT22;10719;48.130;11.630;2023-03-31T05:25:35;7.70;99.90
21123;DHT22;10719;48.130;11.630;2023-03-31T05:28:01;7.80;99.90
21123;DHT22;10719;48.130;11.630;2023-03-31T05:30:27;7.70;99.90
21123;DHT22;10719;48.130;11.630;2023-03-31T05:32:54;7.70;99.90
21123;DHT22;10719;48.130;11.630;2023-03-31T05:35:20;7.70;99.90
21123;DHT22;10719;48.130;11.630;2023-03-31T05:37:46;7.70;99.90
21123;DHT22;10719;48.130;11.630;2023-03-31T05:40:11;7.80;99.90
21123;DHT22;10719;48.130;11.630;2023-03-31T05:42:37;7.80;99.90
21123;DHT22;10719;48.130;11.630;2023-03-31T05:45:04;7.70;99.90
21123;DHT22;10719;48.130;11.630;2023-03-31T05:47:30;7.70;99.90
21123;DHT22;10719;48.130;11.630;2023-03-31T05:49:56;7.80;99.90
21123;DHT22;10719;48.130;11.630;2023-03-31T05:52:22;7.80;99.90
21123;DHT22;10719;48.130;11.630;2023-03-31T05:54:48;7.90;99.90
21123;DHT22;10719;48.130;11.630;2023-03-31T05:57:13;7.90;99.90
21123;DHT22;10719;48.130;11.630;2023-03-31T05:59:39;7.90;99.90
21123;DHT22;10719;48.130;11.630;2023-03-31T06:02:06;8.00;99.90
21123;DHT22;10719;48.130;11.630;2023-03-31T06:04:32;8.00;99.90
21123;DHT22;10719;48.130;11.630;2023-03-31T06:06:58;8.00;99.90
21123;DHT22;10719;48.130;11.630;2023-03-31T06:09:24;8.00;99.90
21123;DHT22;10719;48.130;11.630;2023-03-31T06:11:51;8.10;99.90
21123;DHT22;10719;48.130;11.630;2023-03-31T06:14:16;8.20;99.90
21123;DHT22;10719;48.130;11.630;2023-03-31T06:16:42;8.30;99.90
21123;DHT22;10719;48.130;11.630;2023-03-31T06:19:08;8.40;99.90
21123;DHT22;10719;48.130;11.630;2023-03-31T06:21:33;8.30;99.90
21123;DHT22;10719;48.130;11.630;2023-03-31T06:23:59;8.30;99.90
21123;DHT22;10719;48.130;11.630;2023-03-31T06:26:25;8.40;99.90
21123;DHT22;10719;48.130;11.630;2023-03-31T06:28:52;8.40;99.90
21123;DHT22;10719;48.130;11.630;2023-03-31T06:31:20;8.40;99.90
21123;DHT22;10719;48.130;11.630;2023-03-31T06:33:46;8.40;99.90
21123;DHT22;10719;48.130;11.630;2023-03-31T06:36:14;8.50;99.90
21123;DHT22;10719;48.130;11.630;2023-03-31T06:38:40;8.50;99.90
21123;DHT22;10719;48.130;11.630;2023-03-31T06:41:07;8.60;99.90
21123;DHT22;10719;48.130;11.630;2023-03-31T06:43:33;8.70;99.90
21123;DHT22;10719;48.130;11.630;2023-03-31T06:46:00;8.80;99.90
21123;DHT22;10719;48.130;11.630;2023-03-31T06:48:25;8.80;99.90
21123;DHT22;10719;48.130;11.630;2023-03-31T06:50:57;8.90;99.90
21123;DHT22;10719;48.130;11.630;2023-03-31T06:53:23;8.90;99.90
21123;DHT22;10719;48.130;11.630;2023-03-31T06:55:49;8.90;99.90
21123;DHT22;10719;48.130;11.630;2023-03-31T06:58:15;9.00;99.90
21123;DHT22;10719;48.130;11.630;2023-03-31T07:00:40;9.00;99.90
21123;DHT22;10719;48.130;11.630;2023-03-31T07:03:06;9.00;99.90
21123;DHT22;10719;48.130;11.630;2023-03-31T07:05:33;8.90;99.90
21123;DHT22;10719;48.130;11.630;2023-03-31T07:08:00;8.90;99.90
21123;DHT22;10719;48.130;11.630;2023-03-31T07:10:28;8.90;99.90
21123;DHT22;10719;48.130;11.630;2023-03-31T07:12:54;8.90;99.90
21123;DHT22;10719;48.130;11.630;2023-03-31T07:15:20;8.90;99.90
21123;DHT22;10719;48.130;11.630;2023-03-31T07:17:46;8.80;99.90
21123;DHT22;10719;48.130;11.630;2023-03-31T07:20:16;8.80;99.90
21123;DHT22;10719;48.130;11.630;2023-03-31T07:22:43;8.70;99.90
21123;DHT22;10719;48.130;11.630;2023-03-31T07:25:11;8.60;99.90
21123;DHT22;10719;48.130;11.630;2023-03-31T07:27:37;8.60;99.90
21123;DHT22;10719;48.130;11.630;2023-03-31T07:30:07;8.60;99.90
21123;DHT22;10719;48.130;11.630;2023-03-31T07:32:33;8.70;99.90
21123;DHT22;10719;48.130;11.630;2023-03-31T07:34:59;8.70;99.90
21123;DHT22;10719;48.130;11.630;2023-03-31T07:37:25;8.60;99.90
21123;DHT22;10719;48.130;11.630;2023-03-31T07:39:51;8.70;99.90
21123;DHT22;10719;48.130;11.630;2023-03-31T07:42:17;8.70;99.90
21123;DHT22;10719;48.130;11.630;2023-03-31T07:44:42;8.70;99.90
21123;DHT22;10719;48.130;11.630;2023-03-31T07:47:08;8.70;99.90
21123;DHT22;10719;48.130;11.630;2023-03-31T07:49:34;8.60;99.90
21123;DHT22;10719;48.130;11.630;2023-03-31T07:52:01;8.60;99.90
21123;DHT22;10719;48.130;11.630;2023-03-31T07:54:26;8.60;99.90
21123;DHT22;10719;48.130;11.630;2023-03-31T07:56:52;8.60;99.90
21123;DHT22;10719;48.130;11.630;2023-03-31T07:59:18;8.60;99.90
21123;DHT22;10719;48.130;11.630;2023-03-31T08:01:44;8.70;99.90
21123;DHT22;10719;48.130;11.630;2023-03-31T08:04:11;8.70;99.90
21123;DHT22;10719;48.130;11.630;2023-03-31T08:06:36;8.70;99.90
21123;DHT22;10719;48.130;11.630;2023-03-31T08:09:03;8.80;99.90
21123;DHT22;10719;48.130;11.630;2023-03-31T08:11:29;8.90;99.90
21123;DHT22;10719;48.130;11.630;2023-03-31T08:13:55;9.00;99.90
21123;DHT22;10719;48.130;11.630;2023-03-31T08:16:21;9.20;99.90
21123;DHT22;10719;48.130;11.630;2023-03-31T08:18:46;9.30;99.90
21123;DHT22;10719;48.130;11.630;2023-03-31T08:21:12;9.20;99.90
21123;DHT22;10719;48.130;11.630;2023-03-31T08:23:38;9.20;99.90
21123;DHT22;10719;48.130;11.630;2023-03-31T08:26:13;9.10;99.90
21123;DHT22;10719;48.130;11.630;2023-03-31T08:28:39;9.20;99.90
21123;DHT22;10719;48.130;11.630;2023-03-31T08:31:06;9.20;99.90
21123;DHT22;10719;48.130;11.630;2023-03-31T08:33:32;9.10;99.90
21123;DHT22;10719;48.130;11.630;2023-03-31T08:36:03;9.10;99.90
21123;DHT22;10719;48.130;11.630;2023-03-31T08:38:29;9.10;99.90
21123;DHT22;10719;48.130;11.630;2023-03-31T08:41:01;9.20;99.90
21123;DHT22;10719;48.130;11.630;2023-03-31T08:43:32;9.10;99.90
21123;DHT22;10719;48.130;11.630;2023-03-31T08:46:00;9.10;99.90
21123;DHT22;10719;48.130;11.630;2023-03-31T08:48:31;9.00;99.90
21123;DHT22;10719;48.130;11.630;2023-03-31T08:51:10;9.00;99.90
21123;DHT22;10719;48.130;11.630;2023-03-31T08:53:41;9.00;99.90
21123;DHT22;10719;48.130;11.630;2023-03-31T08:56:14;9.30;99.90
21123;DHT22;10719;48.130;11.630;2023-03-31T08:58:44;9.40;99.90
21123;DHT22;10719;48.130;11.630;2023-03-31T09:12:20;10.10;99.90
21123;DHT22;10719;48.130;11.630;2023-03-31T09:14:59;10.30;99.90
21123;DHT22;10719;48.130;11.630;2023-03-31T09:17:33;10.40;99.90
21123;DHT22;10719;48.130;11.630;2023-03-31T09:20:10;10.70;99.90
21123;DHT22;10719;48.130;11.630;2023-03-31T09:22:42;10.60;99.90
21123;DHT22;10719;48.130;11.630;2023-03-31T09:25:17;10.50;99.90
21123;DHT22;10719;48.130;11.630;2023-03-31T09:27:44;10.50;99.90
21123;DHT22;10719;48.130;11.630;2023-03-31T09:30:16;10.70;99.90
21123;DHT22;10719;48.130;11.630;2023-03-31T09:32:47;11.60;99.90
21123;DHT22;10719;48.130;11.630;2023-03-31T09:35:18;13.10;99.90
21123;DHT22;10719;48.130;11.630;2023-03-31T09:37:46;14.50;99.90
21123;DHT22;10719;48.130;11.630;2023-03-31T09:40:17;15.50;99.90
21123;DHT22;10719;48.130;11.630;2023-03-31T09:42:49;15.30;99.90
21123;DHT22;10719;48.130;11.630;2023-03-31T09:45:17;14.40;99.90
21123;DHT22;10719;48.130;11.630;2023-03-31T09:47:48;14.20;99.90
21123;DHT22;10719;48.130;11.630;2023-03-31T09:50:15;14.40;99.90
21123;DHT22;10719;48.130;11.630;2023-03-31T09:52:45;16.10;99.90
21123;DHT22;10719;48.130;11.630;2023-03-31T09:55:20;16.20;99.90
21123;DHT22;10719;48.130;11.630;2023-03-31T09:57:46;15.60;99.90
21123;DHT22;10719;48.130;11.630;2023-03-31T10:03:00;14.10;99.90
21123;DHT22;10719;48.130;11.630;2023-03-31T10:05:48;13.80;99.90
21123;DHT22;10719;48.130;11.630;2023-03-31T10:10:52;13.40;99.90
21123;DHT22;10719;48.130;11.630;2023-03-31T10:13:24;13.70;99.90
21123;DHT22;10719;48.130;11.630;2023-03-31T10:15:59;13.60;99.90
21123;DHT22;10719;48.130;11.630;2023-03-31T10:18:37;13.70;99.90
21123;DHT22;10719;48.130;11.630;2023-03-31T10:21:05;14.20;99.90
21123;DHT22;10719;48.130;11.630;2023-03-31T10:23:33;14.80;99.90
21123;DHT22;10719;48.130;11.630;2023-03-31T10:26:00;16.10;99.90
21123;DHT22;10719;48.130;11.630;2023-03-31T10:28:31;16.00;99.90
21123;DHT22;10719;48.130;11.630;2023-03-31T10:30:58;14.90;99.90
21123;DHT22;10719;48.130;11.630;2023-03-31T10:33:30;14.20;99.90
21123;DHT22;10719;48.130;11.630;2023-03-31T10:36:01;13.80;99.90
21123;DHT22;10719;48.130;11.630;2023-03-31T10:38:37;13.90;99.90
21123;DHT22;10719;48.130;11.630;2023-03-31T10:41:07;15.10;99.90
21123;DHT22;10719;48.130;11.630;2023-03-31T10:43:46;16.50;99.90
21123;DHT22;10719;48.130;11.630;2023-03-31T10:46:12;17.70;99.90
21123;DHT22;10719;48.130;11.630;2023-03-31T10:48:40;18.00;99.90
21123;DHT22;10719;48.130;11.630;2023-03-31T10:53:45;16.70;99.90
21123;DHT22;10719;48.130;11.630;2023-03-31T11:07:44;16.30;99.90
21123;DHT22;10719;48.130;11.630;2023-03-31T11:13:14;15.30;99.90
21123;DHT22;10719;48.130;11.630;2023-03-31T11:15:48;14.70;99.90
21123;DHT22;10719;48.130;11.630;2023-03-31T11:21:18;13.70;99.90
21123;DHT22;10719;48.130;11.630;2023-03-31T11:29:26;12.40;99.90
21123;DHT22;10719;48.130;11.630;2023-03-31T11:32:15;11.90;99.90
21123;DHT22;10719;48.130;11.630;2023-03-31T11:38:16;10.10;99.90
21123;DHT22;10719;48.130;11.630;2023-03-31T11:41:02;9.70;99.90
21123;DHT22;10719;48.130;11.630;2023-03-31T11:43:39;9.50;99.90
21123;DHT22;10719;48.130;11.630;2023-03-31T11:48:54;9.60;99.90
21123;DHT22;10719;48.130;11.630;2023-03-31T11:54:00;9.90;99.90
21123;DHT22;10719;48.130;11.630;2023-03-31T11:56:34;10.00;99.90
21123;DHT22;10719;48.130;11.630;2023-03-31T11:59:02;10.00;99.90
21123;DHT22;10719;48.130;11.630;2023-03-31T12:07:01;10.40;99.90
21123;DHT22;10719;48.130;11.630;2023-03-31T12:09:43;10.70;99.90
21123;DHT22;10719;48.130;11.630;2023-03-31T12:13:01;11.30;99.90
21123;DHT22;10719;48.130;11.630;2023-03-31T12:15:38;12.10;99.90
21123;DHT22;10719;48.130;11.630;2023-03-31T12:18:21;12.30;99.90
21123;DHT22;10719;48.130;11.630;2023-03-31T12:20:55;12.70;99.90
21123;DHT22;10719;48.130;11.630;2023-03-31T12:23:25;13.90;99.90
21123;DHT22;10719;48.130;11.630;2023-03-31T12:28:29;13.70;99.90
21123;DHT22;10719;48.130;11.630;2023-03-31T12:30:59;13.00;99.90
21123;DHT22;10719;48.130;11.630;2023-03-31T12:33:35;12.70;99.90
21123;DHT22;10719;48.130;11.630;2023-03-31T12:43:31;12.90;99.90
21123;DHT22;10719;48.130;11.630;2023-03-31T12:48:54;12.90;99.90
21123;DHT22;10719;48.130;11.630;2023-03-31T12:57:18;12.30;99.90
21123;DHT22;10719;48.130;11.630;2023-03-31T12:59:45;12.20;99.90
21123;DHT22;10719;48.130;11.630;2023-03-31T13:04:40;12.80;99.90
21123;DHT22;10719;48.130;11.630;2023-03-31T13:07:36;14.00;99.90
21123;DHT22;10719;48.130;11.630;2023-03-31T13:10:24;13.80;99.90
21123;DHT22;10719;48.130;11.630;2023-03-31T13:13:01;13.00;99.90
21123;DHT22;10719;48.130;11.630;2023-03-31T13:15:27;12.70;99.90
21123;DHT22;10719;48.130;11.630;2023-03-31T13:18:02;12.60;99.90
21123;DHT22;10719;48.130;11.630;2023-03-31T13:20:38;12.40;99.90
21123;DHT22;10719;48.130;11.630;2023-03-31T13:23:19;12.40;99.90
21123;DHT22;10719;48.130;11.630;2023-03-31T13:25:48;12.30;99.90
21123;DHT22;10719;48.130;11.630;2023-03-31T13:28:23;12.10;99.90
21123;DHT22;10719;48.130;11.630;2023-03-31T13:41:20;12.20;99.90
21123;DHT22;10719;48.130;11.630;2023-03-31T13:44:15;12.40;99.90
21123;DHT22;10719;48.130;11.630;2023-03-31T14:08:06;17.10;99.90
21123;DHT22;10719;48.130;11.630;2023-03-31T14:10:24;15.70;99.90
21123;DHT22;10719;48.130;11.630;2023-03-31T14:12:51;14.90;99.90
21123;DHT22;10719;48.130;11.630;2023-03-31T14:15:28;14.30;99.90
21123;DHT22;10719;48.130;11.630;2023-03-31T14:17:54;13.80;99.90
21123;DHT22;10719;48.130;11.630;2023-03-31T14:25:43;12.80;99.90
21123;DHT22;10719;48.130;11.630;2023-03-31T14:28:37;12.70;99.90
21123;DHT22;10719;48.130;11.630;2023-03-31T14:38:52;12.00;99.90
21123;DHT22;10719;48.130;11.630;2023-03-31T14:41:20;11.90;99.90
21123;DHT22;10719;48.130;11.630;2023-03-31T14:43:55;11.70;99.90
21123;DHT22;10719;48.130;11.630;2023-03-31T14:46:21;11.60;99.90
21123;DHT22;10719;48.130;11.630;2023-03-31T14:48:49;11.30;99.90
21123;DHT22;10719;48.130;11.630;2023-03-31T14:51:18;10.50;99.90
21123;DHT22;10719;48.130;11.630;2023-03-31T14:53:44;10.00;99.90
21123;DHT22;10719;48.130;11.630;2023-03-31T14:56:15;9.90;99.90
21123;DHT22;10719;48.130;11.630;2023-03-31T14:58:46;9.80;99.90
21123;DHT22;10719;48.130;11.630;2023-03-31T15:01:18;9.70;99.90
21123;DHT22;10719;48.130;11.630;2023-03-31T15:03:49;9.50;99.90
21123;DHT22;10719;48.130;11.630;2023-03-31T15:06:16;9.50;99.90
21123;DHT22;10719;48.130;11.630;2023-03-31T15:08:42;9.60;99.90
21123;DHT22;10719;48.130;11.630;2023-03-31T15:11:11;9.70;99.90
21123;DHT22;10719;48.130;11.630;2023-03-31T15:13:39;10.10;99.90
21123;DHT22;10719;48.130;11.630;2023-03-31T15:16:41;10.60;99.90
21123;DHT22;10719;48.130;11.630;2023-03-31T15:19:13;10.70;99.90
21123;DHT22;10719;48.130;11.630;2023-03-31T15:21:41;11.00;99.90
21123;DHT22;10719;48.130;11.630;2023-03-31T15:24:09;11.10;99.90
21123;DHT22;10719;48.130;11.630;2023-03-31T15:29:36;11.50;99.90
21123;DHT22;10719;48.130;11.630;2023-03-31T15:32:04;11.80;99.90
21123;DHT22;10719;48.130;11.630;2023-03-31T15:34:32;11.90;99.90
21123;DHT22;10719;48.130;11.630;2023-03-31T15:36:58;11.90;99.90
21123;DHT22;10719;48.130;11.630;2023-03-31T15:39:27;12.00;99.90
21123;DHT22;10719;48.130;11.630;2023-03-31T15:41:55;12.10;99.90
21123;DHT22;10719;48.130;11.630;2023-03-31T15:47:00;12.10;99.90
21123;DHT22;10719;48.130;11.630;2023-03-31T15:49:26;12.00;99.90
21123;DHT22;10719;48.130;11.630;2023-03-31T15:51:53;11.80;99.90
21123;DHT22;10719;48.130;11.630;2023-03-31T15:54:55;11.80;99.90
21123;DHT22;10719;48.130;11.630;2023-03-31T15:57:30;11.80;99.90
21123;DHT22;10719;48.130;11.630;2023-03-31T15:59:56;11.60;99.90
21123;DHT22;10719;48.130;11.630;2023-03-31T16:02:42;11.60;99.90
21123;DHT22;10719;48.130;11.630;2023-03-31T16:05:39;11.50;99.90
21123;DHT22;10719;48.130;11.630;2023-03-31T16:08:14;11.60;99.90
21123;DHT22;10719;48.130;11.630;2023-03-31T16:10:41;11.50;99.90
21123;DHT22;10719;48.130;11.630;2023-03-31T16:13:09;11.50;99.90
21123;DHT22;10719;48.130;11.630;2023-03-31T16:15:41;11.70;99.90
21123;DHT22;10719;48.130;11.630;2023-03-31T16:18:14;11.70;99.90
21123;DHT22;10719;48.130;11.630;2023-03-31T16:20:49;11.80;99.90
21123;DHT22;10719;48.130;11.630;2023-03-31T16:23:18;11.90;99.90
21123;DHT22;10719;48.130;11.630;2023-03-31T16:25:45;12.00;99.90
21123;DHT22;10719;48.130;11.630;2023-03-31T16:28:19;12.10;99.90
21123;DHT22;10719;48.130;11.630;2023-03-31T16:30:46;12.00;99.90
21123;DHT22;10719;48.130;11.630;2023-03-31T16:33:20;12.00;99.90
21123;DHT22;10719;48.130;11.630;2023-03-31T16:35:48;12.00;99.90
21123;DHT22;10719;48.130;11.630;2023-03-31T16:38:19;11.90;99.90
21123;DHT22;10719;48.130;11.630;2023-03-31T16:40:47;11.80;99.90
21123;DHT22;10719;48.130;11.630;2023-03-31T16:43:15;11.70;99.90
21123;DHT22;10719;48.130;11.630;2023-03-31T16:45:46;11.60;99.90
21123;DHT22;10719;48.130;11.630;2023-03-31T16:48:16;11.50;99.90
21123;DHT22;10719;48.130;11.630;2023-03-31T16:50:44;11.40;99.90
21123;DHT22;10719;48.130;11.630;2023-03-31T16:53:12;11.40;99.90
21123;DHT22;10719;48.130;11.630;2023-03-31T16:55:37;11.40;99.90
21123;DHT22;10719;48.130;11.630;2023-03-31T16:58:03;11.30;99.90
21123;DHT22;10719;48.130;11.630;2023-03-31T17:00:30;11.30;99.90
21123;DHT22;10719;48.130;11.630;2023-03-31T17:02:56;11.30;99.90
21123;DHT22;10719;48.130;11.630;2023-03-31T17:05:23;10.30;99.90
21123;DHT22;10719;48.130;11.630;2023-03-31T17:07:50;9.50;99.90
21123;DHT22;10719;48.130;11.630;2023-03-31T17:10:15;9.00;99.90
21123;DHT22;10719;48.130;11.630;2023-03-31T17:12:41;8.80;99.90
21123;DHT22;10719;48.130;11.630;2023-03-31T17:15:07;8.60;99.90
21123;DHT22;10719;48.130;11.630;2023-03-31T17:17:33;8.50;99.90
21123;DHT22;10719;48.130;11.630;2023-03-31T17:19:59;8.40;99.90
21123;DHT22;10719;48.130;11.630;2023-03-31T17:22:25;8.30;99.90
21123;DHT22;10719;48.130;11.630;2023-03-31T17:24:50;8.20;99.90
21123;DHT22;10719;48.130;11.630;2023-03-31T17:27:26;8.10;99.90
21123;DHT22;10719;48.130;11.630;2023-03-31T17:29:52;8.10;99.90
21123;DHT22;10719;48.130;11.630;2023-03-31T17:32:18;8.00;99.90
21123;DHT22;10719;48.130;11.630;2023-03-31T17:34:44;8.00;99.90
21123;DHT22;10719;48.130;11.630;2023-03-31T17:37:12;8.00;99.90
21123;DHT22;10719;48.130;11.630;2023-03-31T17:39:38;8.00;99.90
21123;DHT22;10719;48.130;11.630;2023-03-31T17:42:03;8.00;99.90
21123;DHT22;10719;48.130;11.630;2023-03-31T17:44:29;8.00;99.90
21123;DHT22;10719;48.130;11.630;2023-03-31T17:46:55;8.00;99.90
21123;DHT22;10719;48.130;11.630;2023-03-31T17:49:22;8.00;99.90
21123;DHT22;10719;48.130;11.630;2023-03-31T17:51:48;7.90;99.90
21123;DHT22;10719;48.130;11.630;2023-03-31T17:54:14;7.90;99.90
21123;DHT22;10719;48.130;11.630;2023-03-31T17:56:39;7.90;99.90
21123;DHT22;10719;48.130;11.630;2023-03-31T17:59:06;7.90;99.90
21123;DHT22;10719;48.130;11.630;2023-03-31T18:01:31;8.00;99.90
21123;DHT22;10719;48.130;11.630;2023-03-31T18:03:57;8.00;99.90
21123;DHT22;10719;48.130;11.630;2023-03-31T18:06:24;8.10;99.90
21123;DHT22;10719;48.130;11.630;2023-03-31T18:08:49;8.10;99.90
21123;DHT22;10719;48.130;11.630;2023-03-31T18:11:15;8.20;99.90
21123;DHT22;10719;48.130;11.630;2023-03-31T18:13:41;8.20;99.90
21123;DHT22;10719;48.130;11.630;2023-03-31T18:16:08;8.20;99.90
21123;DHT22;10719;48.130;11.630;2023-03-31T18:18:37;8.20;99.90
21123;DHT22;10719;48.130;11.630;2023-03-31T18:21:08;8.30;99.90
21123;DHT22;10719;48.130;11.630;2023-03-31T18:23:35;8.40;99.90